sensor_id;sensor_type;location;lat;lon;timestamp;temperature;humidity
12827;DHT22;66927;48.812;9.118;2024-03-02T00:00:19;9.10;99.90
12827;DHT22;66927;48.812;9.118;2024-03-02T00:02:48;9.00;99.90
12827;DHT22;66927;48.812;9.118;2024-03-02T00:05:22;9.10;99.90
12827;DHT22;66927;48.812;9.118;2024-03-02T00:07:57;9.00;99.90
12827;DHT22;66927;48.812;9.118;2024-03-02T00:10:39;9.10;99.90
12827;DHT22;66927;48.812;9.118;2024-03-02T00:13:08;9.00;99.90
12827;DHT22;66927;48.812;9.118;2024-03-02T00:18:02;9.00;99.90
12827;DHT22;66927;48.812;9.118;2024-03-02T00:20:30;9.00;99.90
12827;DHT22;66927;48.812;9.118;2024-03-02T00:23:05;9.00;99.90
12827;DHT22;66927;48.812;9.118;2024-03-02T00:25:42;9.00;99.90
12827;DHT22;66927;48.812;9.118;2024-03-02T00:28:23;9.00;99.90
12827;DHT22;66927;48.812;9.118;2024-03-02T00:31:06;9.00;99.90
12827;DHT22;66927;48.812;9.118;2024-03-02T00:33:43;9.00;99.90
12827;DHT22;66927;48.812;9.118;2024-03-02T00:36:10;9.00;99.90
12827;DHT22;66927;48.812;9.118;2024-03-02T00:38:49;9.00;99.90
12827;DHT22;66927;48.812;9.118;2024-03-02T00:41:26;9.00;99.90
12827;DHT22;66927;48.812;9.118;2024-03-02T00:44:03;9.00;99.90
12827;DHT22;66927;48.812;9.118;2024-03-02T00:46:39;8.90;99.90
12827;DHT22;66927;48.812;9.118;2024-03-02T00:49:22;9.00;99.90
12827;DHT22;66927;48.812;9.118;2024-03-02T00:51:50;8.90;99.90
12827;DHT22;66927;48.812;9.118;2024-03-02T00:54:19;9.00;99.90
12827;DHT22;66927;48.812;9.118;2024-03-02T00:56:47;8.90;99.90
12827;DHT22;66927;48.812;9.118;2024-03-02T00:59:12;9.00;99.90
12827;DHT22;66927;48.812;9.118;2024-03-02T01:01:38;9.00;99.90
12827;DHT22;66927;48.812;9.118;2024-03-02T01:04:04;9.00;99.90
12827;DHT22;66927;48.812;9.118;2024-03-02T01:06:30;8.90;99.90
12827;DHT22;66927;48.812;9.118;2024-03-02T01:08:56;8.90;99.90
12827;DHT22;66927;48.812;9.118;2024-03-02T01:11:22;8.90;99.90
12827;DHT22;66927;48.812;9.118;2024-03-02T01:13:47;8.90;99.90
12827;DHT22;66927;48.812;9.118;2024-03-02T01:16:14;8.90;99.90
12827;DHT22;66927;48.812;9.118;2024-03-02T01:18:41;8.90;99.90
12827;DHT22;66927;48.812;9.118;2024-03-02T01:21:07;8.90;99.90
12827;DHT22;66927;48.812;9.118;2024-03-02T01:23:33;8.80;99.90
12827;DHT22;66927;48.812;9.118;2024-03-02T01:25:59;8.80;99.90
12827;DHT22;66927;48.812;9.118;2024-03-02T01:28:25;8.80;99.90
12827;DHT22;66927;48.812;9.118;2024-03-02T01:30:50;8.80;99.90
12827;DHT22;66927;48.812;9.118;2024-03-02T01:33:19;8.80;99.90
12827;DHT22;66927;48.812;9.118;2024-03-02T01:35:45;8.80;99.90
12827;DHT22;66927;48.812;9.118;2024-03-02T01:38:11;8.80;99.90
12827;DHT22;66927;48.812;9.118;2024-03-02T01:40:37;8.80;99.90
12827;DHT22;66927;48.812;9.118;2024-03-02T01:43:04;8.80;99.90
12827;DHT22;66927;48.812;9.118;2024-03-02T01:45:30;8.70;99.90
12827;DHT22;66927;48.812;9.118;2024-03-02T01:47:56;8.70;99.90
12827;DHT22;66927;48.812;9.118;2024-03-02T01:50:29;8.70;99.90
12827;DHT22;66927;48.812;9.118;2024-03-02T01:52:58;8.70;99.90
12827;DHT22;66927;48.812;9.118;2024-03-02T01:55:24;8.70;99.90
12827;DHT22;66927;48.812;9.118;2024-03-02T01:57:51;8.70;99.90
12827;DHT22;66927;48.812;9.118;2024-03-02T02:00:21;8.70;99.90
12827;DHT22;66927;48.812;9.118;2024-03-02T02:02:50;8.70;99.90
12827;DHT22;66927;48.812;9.118;2024-03-02T02:05:16;8.60;99.90
12827;DHT22;66927;48.812;9.118;2024-03-02T02:07:42;8.60;99.90
12827;DHT22;66927;48.812;9.118;2024-03-02T02:10:09;8.60;99.90
12827;DHT22;66927;48.812;9.118;2024-03-02T02:12:35;8.60;99.90
12827;DHT22;66927;48.812;9.118;2024-03-02T02:15:01;8.60;99.90
12827;DHT22;66927;48.812;9.118;2024-03-02T02:17:26;8.60;99.90
12827;DHT22;66927;48.812;9.118;2024-03-02T02:19:52;8.60;99.90
12827;DHT22;66927;48.812;9.118;2024-03-02T02:22:17;8.50;99.90
12827;DHT22;66927;48.812;9.118;2024-03-02T02:24:43;8.50;99.90
12827;DHT22;66927;48.812;9.118;2024-03-02T02:27:09;8.50;99.90
12827;DHT22;66927;48.812;9.118;2024-03-02T02:29:35;8.50;99.90
12827;DHT22;66927;48.812;9.118;2024-03-02T02:32:01;8.50;99.90
12827;DHT22;66927;48.812;9.118;2024-03-02T02:34:28;8.40;99.90
12827;DHT22;66927;48.812;9.118;2024-03-02T02:36:53;8.30;99.90
12827;DHT22;66927;48.812;9.118;2024-03-02T02:39:21;8.30;99.90
12827;DHT22;66927;48.812;9.118;2024-03-02T02:41:47;8.30;99.90
12827;DHT22;66927;48.812;9.118;2024-03-02T02:44:13;8.30;99.90
12827;DHT22;66927;48.812;9.118;2024-03-02T02:46:40;8.20;99.90
12827;DHT22;66927;48.812;9.118;2024-03-02T02:49:06;8.20;99.90
12827;DHT22;66927;48.812;9.118;2024-03-02T02:51:31;8.30;99.90
12827;DHT22;66927;48.812;9.118;2024-03-02T02:53:57;8.30;99.90
12827;DHT22;66927;48.812;9.118;2024-03-02T02:56:23;8.30;99.90
12827;DHT22;66927;48.812;9.118;2024-03-02T02:58:48;8.30;99.90
12827;DHT22;66927;48.812;9.118;2024-03-02T03:01:17;8.30;99.90
12827;DHT22;66927;48.812;9.118;2024-03-02T03:03:45;8.30;99.90
12827;DHT22;66927;48.812;9.118;2024-03-02T03:06:11;8.30;99.90
12827;DHT22;66927;48.812;9.118;2024-03-02T03:08:37;8.30;99.90
12827;DHT22;66927;48.812;9.118;2024-03-02T03:11:04;8.20;99.90
12827;DHT22;66927;48.812;9.118;2024-03-02T03:13:31;8.20;99.90
12827;DHT22;66927;48.812;9.118;2024-03-02T03:15:56;8.20;99.90
12827;DHT22;66927;48.812;9.118;2024-03-02T03:18:23;8.10;99.90
12827;DHT22;66927;48.812;9.118;2024-03-02T03:20:49;8.20;99.90
12827;DHT22;66927;48.812;9.118;2024-03-02T03:23:15;8.20;99.90
12827;DHT22;66927;48.812;9.118;2024-03-02T03:25:42;8.20;99.90
12827;DHT22;66927;48.812;9.118;2024-03-02T03:28:08;8.20;99.90
12827;DHT22;66927;48.812;9.118;2024-03-02T03:30:37;8.20;99.90
12827;DHT22;66927;48.812;9.118;2024-03-02T03:33:03;8.20;99.90
12827;DHT22;66927;48.812;9.118;2024-03-02T03:35:29;8.10;99.90
12827;DHT22;66927;48.812;9.118;2024-03-02T03:37:54;8.10;99.90
12827;DHT22;66927;48.812;9.118;2024-03-02T03:40:20;8.00;99.90
12827;DHT22;66927;48.812;9.118;2024-03-02T03:42:45;8.10;99.90
12827;DHT22;66927;48.812;9.118;2024-03-02T03:45:11;8.10;99.90
12827;DHT22;66927;48.812;9.118;2024-03-02T03:47:36;8.10;99.90
12827;DHT22;66927;48.812;9.118;2024-03-02T03:50:02;8.10;99.90
12827;DHT22;66927;48.812;9.118;2024-03-02T03:52:32;8.10;99.90
12827;DHT22;66927;48.812;9.118;2024-03-02T03:54:57;8.10;99.90
12827;DHT22;66927;48.812;9.118;2024-03-02T03:57:23;8.10;99.90
12827;DHT22;66927;48.812;9.118;2024-03-02T03:59:49;8.10;99.90
12827;DHT22;66927;48.812;9.118;2024-03-02T04:02:14;8.10;99.90
12827;DHT22;66927;48.812;9.118;2024-03-02T04:04:40;8.10;99.90
12827;DHT22;66927;48.812;9.118;2024-03-02T04:07:05;8.10;99.90
12827;DHT22;66927;48.812;9.118;2024-03-02T04:09:31;8.10;99.90
12827;DHT22;66927;48.812;9.118;2024-03-02T04:11:57;8.10;99.90
12827;DHT22;66927;48.812;9.118;2024-03-02T04:14:22;8.00;99.90
12827;DHT22;66927;48.812;9.118;2024-03-02T04:16:48;8.00;99.90
12827;DHT22;66927;48.812;9.118;2024-03-02T04:19:14;8.00;99.90
12827;DHT22;66927;48.812;9.118;2024-03-02T04:21:39;8.00;99.90
12827;DHT22;66927;48.812;9.118;2024-03-02T04:24:05;8.00;99.90
12827;DHT22;66927;48.812;9.118;2024-03-02T04:26:31;8.00;99.90
12827;DHT22;66927;48.812;9.118;2024-03-02T04:28:57;8.00;99.90
12827;DHT22;66927;48.812;9.118;2024-03-02T04:31:23;8.00;99.90
12827;DHT22;66927;48.812;9.118;2024-03-02T04:33:48;8.10;99.90
12827;DHT22;66927;48.812;9.118;2024-03-02T04:36:14;8.10;99.90
12827;DHT22;66927;48.812;9.118;2024-03-02T04:38:40;8.10;99.90
12827;DHT22;66927;48.812;9.118;2024-03-02T04:41:06;8.10;99.90
12827;DHT22;66927;48.812;9.118;2024-03-02T04:43:32;8.00;99.90
12827;DHT22;66927;48.812;9.118;2024-03-02T04:45:59;8.00;99.90
12827;DHT22;66927;48.812;9.118;2024-03-02T04:48:25;8.00;99.90
12827;DHT22;66927;48.812;9.118;2024-03-02T04:50:50;8.00;99.90
12827;DHT22;66927;48.812;9.118;2024-03-02T04:53:17;8.00;99.90
12827;DHT22;66927;48.812;9.118;2024-03-02T04:55:43;8.00;99.90
12827;DHT22;66927;48.812;9.118;2024-03-02T04:58:08;8.00;99.90
12827;DHT22;66927;48.812;9.118;2024-03-02T05:00:35;8.00;99.90
12827;DHT22;66927;48.812;9.118;2024-03-02T05:03:01;7.90;99.90
12827;DHT22;66927;48.812;9.118;2024-03-02T05:05:26;7.90;99.90
12827;DHT22;66927;48.812;9.118;2024-03-02T05:07:52;7.90;99.90
12827;DHT22;66927;48.812;9.118;2024-03-02T05:10:18;7.90;99.90
12827;DHT22;66927;48.812;9.118;2024-03-02T05:12:44;7.90;99.90
12827;DHT22;66927;48.812;9.118;2024-03-02T05:15:15;7.90;99.90
12827;DHT22;66927;48.812;9.118;2024-03-02T05:17:42;7.80;99.90
12827;DHT22;66927;48.812;9.118;2024-03-02T05:20:11;7.80;99.90
12827;DHT22;66927;48.812;9.118;2024-03-02T05:22:37;7.90;99.90
12827;DHT22;66927;48.812;9.118;2024-03-02T05:25:04;7.90;99.90
12827;DHT22;66927;48.812;9.118;2024-03-02T05:27:30;7.80;99.90
12827;DHT22;66927;48.812;9.118;2024-03-02T05:29:56;7.80;99.90
12827;DHT22;66927;48.812;9.118;2024-03-02T05:32:23;7.80;99.90
12827;DHT22;66927;48.812;9.118;2024-03-02T05:34:48;7.80;99.90
12827;DHT22;66927;48.812;9.118;2024-03-02T05:37:16;7.80;99.90
12827;DHT22;66927;48.812;9.118;2024-03-02T05:39:42;7.80;99.90
12827;DHT22;66927;48.812;9.118;2024-03-02T05:42:08;7.80;99.90
12827;DHT22;66927;48.812;9.118;2024-03-02T05:44:35;7.70;99.90
12827;DHT22;66927;48.812;9.118;2024-03-02T05:47:01;7.70;99.90
12827;DHT22;66927;48.812;9.118;2024-03-02T05:49:27;7.70;99.90
12827;DHT22;66927;48.812;9.118;2024-03-02T05:51:52;7.70;99.90
12827;DHT22;66927;48.812;9.118;2024-03-02T05:54:18;7.70;99.90
12827;DHT22;66927;48.812;9.118;2024-03-02T05:56:44;7.70;99.90
12827;DHT22;66927;48.812;9.118;2024-03-02T05:59:09;7.70;99.90
12827;DHT22;66927;48.812;9.118;2024-03-02T06:01:45;7.70;99.90
12827;DHT22;66927;48.812;9.118;2024-03-02T06:04:17;7.80;99.90
12827;DHT22;66927;48.812;9.118;2024-03-02T06:06:43;7.70;99.90
12827;DHT22;66927;48.812;9.118;2024-03-02T06:09:09;7.80;99.90
12827;DHT22;66927;48.812;9.118;2024-03-02T06:11:38;7.70;99.90
12827;DHT22;66927;48.812;9.118;2024-03-02T06:14:05;7.70;99.90
12827;DHT22;66927;48.812;9.118;2024-03-02T06:16:31;7.70;99.90
12827;DHT22;66927;48.812;9.118;2024-03-02T06:18:57;7.70;99.90
12827;DHT22;66927;48.812;9.118;2024-03-02T06:21:26;7.70;99.90
12827;DHT22;66927;48.812;9.118;2024-03-02T06:23:51;7.70;99.90
12827;DHT22;66927;48.812;9.118;2024-03-02T06:26:17;7.70;99.90
12827;DHT22;66927;48.812;9.118;2024-03-02T06:28:44;7.70;99.90
12827;DHT22;66927;48.812;9.118;2024-03-02T06:31:09;7.80;99.90
12827;DHT22;66927;48.812;9.118;2024-03-02T06:33:35;7.70;99.90
12827;DHT22;66927;48.812;9.118;2024-03-02T06:36:01;7.80;99.90
12827;DHT22;66927;48.812;9.118;2024-03-02T06:38:27;7.80;99.90
12827;DHT22;66927;48.812;9.118;2024-03-02T06:40:53;7.80;99.90
12827;DHT22;66927;48.812;9.118;2024-03-02T06:43:19;7.80;99.90
12827;DHT22;66927;48.812;9.118;2024-03-02T06:45:49;7.80;99.90
12827;DHT22;66927;48.812;9.118;2024-03-02T06:48:14;7.80;99.90
12827;DHT22;66927;48.812;9.118;2024-03-02T06:50:44;7.80;99.90
12827;DHT22;66927;48.812;9.118;2024-03-02T06:53:10;7.80;99.90
12827;DHT22;66927;48.812;9.118;2024-03-02T06:55:35;7.80;99.90
12827;DHT22;66927;48.812;9.118;2024-03-02T06:58:01;7.90;99.90
12827;DHT22;66927;48.812;9.118;2024-03-02T07:00:26;7.90;99.90
12827;DHT22;66927;48.812;9.118;2024-03-02T07:02:52;7.90;99.90
12827;DHT22;66927;48.812;9.118;2024-03-02T07:05:18;7.90;99.90
12827;DHT22;66927;48.812;9.118;2024-03-02T07:07:43;7.90;99.90
12827;DHT22;66927;48.812;9.118;2024-03-02T07:10:09;7.90;99.90
12827;DHT22;66927;48.812;9.118;2024-03-02T07:12:36;7.90;99.90
12827;DHT22;66927;48.812;9.118;2024-03-02T07:15:02;8.00;99.90
12827;DHT22;66927;48.812;9.118;2024-03-02T07:17:29;8.00;99.90
12827;DHT22;66927;48.812;9.118;2024-03-02T07:19:54;8.00;99.90
12827;DHT22;66927;48.812;9.118;2024-03-02T07:22:20;8.00;99.90
12827;DHT22;66927;48.812;9.118;2024-03-02T07:24:46;8.10;99.90
12827;DHT22;66927;48.812;9.118;2024-03-02T07:27:12;8.10;99.90
12827;DHT22;66927;48.812;9.118;2024-03-02T07:29:39;8.20;99.90
12827;DHT22;66927;48.812;9.118;2024-03-02T07:32:06;8.20;99.90
12827;DHT22;66927;48.812;9.118;2024-03-02T07:34:32;8.20;99.90
12827;DHT22;66927;48.812;9.118;2024-03-02T07:36:58;8.30;99.90
12827;DHT22;66927;48.812;9.118;2024-03-02T07:39:24;8.30;99.90
12827;DHT22;66927;48.812;9.118;2024-03-02T07:41:49;8.30;99.90
12827;DHT22;66927;48.812;9.118;2024-03-02T07:44:16;8.30;99.90
12827;DHT22;66927;48.812;9.118;2024-03-02T07:46:42;8.30;99.90
12827;DHT22;66927;48.812;9.118;2024-03-02T07:49:08;8.20;99.90
12827;DHT22;66927;48.812;9.118;2024-03-02T07:51:34;8.30;99.90
12827;DHT22;66927;48.812;9.118;2024-03-02T07:54:00;8.30;99.90
12827;DHT22;66927;48.812;9.118;2024-03-02T07:56:26;8.30;99.90
12827;DHT22;66927;48.812;9.118;2024-03-02T07:58:51;8.30;99.90
12827;DHT22;66927;48.812;9.118;2024-03-02T08:01:17;8.30;99.90
12827;DHT22;66927;48.812;9.118;2024-03-02T08:03:43;8.40;99.90
12827;DHT22;66927;48.812;9.118;2024-03-02T08:06:14;8.40;99.90
12827;DHT22;66927;48.812;9.118;2024-03-02T08:08:42;8.40;99.90
12827;DHT22;66927;48.812;9.118;2024-03-02T08:11:08;8.40;99.90
12827;DHT22;66927;48.812;9.118;2024-03-02T08:13:34;8.40;99.90
12827;DHT22;66927;48.812;9.118;2024-03-02T08:16:00;8.40;99.90
12827;DHT22;66927;48.812;9.118;2024-03-02T08:18:28;8.40;99.90
12827;DHT22;66927;48.812;9.118;2024-03-02T08:20:54;8.40;99.90
12827;DHT22;66927;48.812;9.118;2024-03-02T08:23:21;8.40;99.90
12827;DHT22;66927;48.812;9.118;2024-03-02T08:25:46;8.40;99.90
12827;DHT22;66927;48.812;9.118;2024-03-02T08:28:12;8.50;99.90
12827;DHT22;66927;48.812;9.118;2024-03-02T08:30:38;8.50;99.90
12827;DHT22;66927;48.812;9.118;2024-03-02T08:33:04;8.50;99.90
12827;DHT22;66927;48.812;9.118;2024-03-02T08:35:29;8.60;99.90
12827;DHT22;66927;48.812;9.118;2024-03-02T08:37:57;8.70;99.90
12827;DHT22;66927;48.812;9.118;2024-03-02T08:40:23;8.80;99.90
12827;DHT22;66927;48.812;9.118;2024-03-02T08:42:48;8.90;99.90
12827;DHT22;66927;48.812;9.118;2024-03-02T08:45:14;9.00;99.90
12827;DHT22;66927;48.812;9.118;2024-03-02T08:47:41;9.10;99.90
12827;DHT22;66927;48.812;9.118;2024-03-02T08:50:07;9.20;99.90
12827;DHT22;66927;48.812;9.118;2024-03-02T08:52:33;9.20;99.90
12827;DHT22;66927;48.812;9.118;2024-03-02T08:54:59;9.30;99.90
12827;DHT22;66927;48.812;9.118;2024-03-02T08:57:25;9.40;99.90
12827;DHT22;66927;48.812;9.118;2024-03-02T08:59:50;9.50;99.90
12827;DHT22;66927;48.812;9.118;2024-03-02T09:02:16;9.50;99.90
12827;DHT22;66927;48.812;9.118;2024-03-02T09:04:42;9.60;99.90
12827;DHT22;66927;48.812;9.118;2024-03-02T09:07:07;9.70;99.90
12827;DHT22;66927;48.812;9.118;2024-03-02T09:09:33;9.80;99.90
12827;DHT22;66927;48.812;9.118;2024-03-02T09:11:58;10.00;99.90
12827;DHT22;66927;48.812;9.118;2024-03-02T09:14:24;10.10;99.90
12827;DHT22;66927;48.812;9.118;2024-03-02T09:16:50;10.30;99.90
12827;DHT22;66927;48.812;9.118;2024-03-02T09:19:16;10.30;99.90
12827;DHT22;66927;48.812;9.118;2024-03-02T09:21:42;10.40;99.90
12827;DHT22;66927;48.812;9.118;2024-03-02T09:24:09;10.40;99.90
12827;DHT22;66927;48.812;9.118;2024-03-02T09:26:35;10.40;99.90
12827;DHT22;66927;48.812;9.118;2024-03-02T09:29:01;10.40;99.90
12827;DHT22;66927;48.812;9.118;2024-03-02T09:31:26;10.50;99.90
12827;DHT22;66927;48.812;9.118;2024-03-02T09:33:52;10.60;99.90
12827;DHT22;66927;48.812;9.118;2024-03-02T09:36:19;10.70;99.90
12827;DHT22;66927;48.812;9.118;2024-03-02T09:38:46;10.80;99.90
12827;DHT22;66927;48.812;9.118;2024-03-02T09:41:12;10.90;99.90
12827;DHT22;66927;48.812;9.118;2024-03-02T09:43:38;10.90;99.90
12827;DHT22;66927;48.812;9.118;2024-03-02T09:46:04;11.10;99.90
12827;DHT22;66927;48.812;9.118;2024-03-02T09:48:29;11.20;99.90
12827;DHT22;66927;48.812;9.118;2024-03-02T09:50:56;11.30;99.90
12827;DHT22;66927;48.812;9.118;2024-03-02T09:53:22;11.40;99.90
12827;DHT22;66927;48.812;9.118;2024-03-02T09:55:49;11.50;99.90
12827;DHT22;66927;48.812;9.118;2024-03-02T09:58:14;11.50;99.90
12827;DHT22;66927;48.812;9.118;2024-03-02T10:00:40;11.50;99.90
12827;DHT22;66927;48.812;9.118;2024-03-02T10:03:11;11.50;99.90
12827;DHT22;66927;48.812;9.118;2024-03-02T10:05:38;11.40;99.90
12827;DHT22;66927;48.812;9.118;2024-03-02T10:08:04;11.40;99.90
12827;DHT22;66927;48.812;9.118;2024-03-02T10:10:37;11.50;99.90
12827;DHT22;66927;48.812;9.118;2024-03-02T10:13:06;11.60;99.90
12827;DHT22;66927;48.812;9.118;2024-03-02T10:15:33;11.60;99.90
12827;DHT22;66927;48.812;9.118;2024-03-02T10:17:58;11.80;99.90
12827;DHT22;66927;48.812;9.118;2024-03-02T10:20:25;11.90;99.90
12827;DHT22;66927;48.812;9.118;2024-03-02T10:22:54;11.90;99.90
12827;DHT22;66927;48.812;9.118;2024-03-02T10:25:32;12.00;99.90
12827;DHT22;66927;48.812;9.118;2024-03-02T10:27:59;12.10;99.90
12827;DHT22;66927;48.812;9.118;2024-03-02T10:30:25;12.20;99.90
12827;DHT22;66927;48.812;9.118;2024-03-02T10:32:53;12.30;99.90
12827;DHT22;66927;48.812;9.118;2024-03-02T10:35:20;12.40;99.90
12827;DHT22;66927;48.812;9.118;2024-03-02T10:37:47;12.50;99.90
12827;DHT22;66927;48.812;9.118;2024-03-02T10:40:14;12.50;99.90
12827;DHT22;66927;48.812;9.118;2024-03-02T10:42:42;12.70;99.90
12827;DHT22;66927;48.812;9.118;2024-03-02T10:45:09;12.80;99.90
12827;DHT22;66927;48.812;9.118;2024-03-02T10:47:38;12.80;99.90
12827;DHT22;66927;48.812;9.118;2024-03-02T10:50:07;12.90;99.90
12827;DHT22;66927;48.812;9.118;2024-03-02T10:52:37;13.00;99.90
12827;DHT22;66927;48.812;9.118;2024-03-02T10:55:05;13.00;99.90
12827;DHT22;66927;48.812;9.118;2024-03-02T10:57:42;13.00;99.90
12827;DHT22;66927;48.812;9.118;2024-03-02T11:00:12;13.20;99.90
12827;DHT22;66927;48.812;9.118;2024-03-02T11:03:05;13.20;99.90
12827;DHT22;66927;48.812;9.118;2024-03-02T11:05:39;13.30;99.90
12827;DHT22;66927;48.812;9.118;2024-03-02T11:08:13;13.50;99.90
12827;DHT22;66927;48.812;9.118;2024-03-02T11:10:50;13.70;99.90
12827;DHT22;66927;48.812;9.118;2024-03-02T11:13:24;13.80;99.90
12827;DHT22;66927;48.812;9.118;2024-03-02T11:15:55;14.00;99.90
12827;DHT22;66927;48.812;9.118;2024-03-02T11:18:22;14.10;99.90
12827;DHT22;66927;48.812;9.118;2024-03-02T11:20:48;14.30;99.90
12827;DHT22;66927;48.812;9.118;2024-03-02T11:23:13;14.40;99.90
12827;DHT22;66927;48.812;9.118;2024-03-02T11:25:40;14.60;99.90
12827;DHT22;66927;48.812;9.118;2024-03-02T11:28:10;14.80;99.90
12827;DHT22;66927;48.812;9.118;2024-03-02T11:33:03;15.20;99.90
12827;DHT22;66927;48.812;9.118;2024-03-02T11:35:33;15.30;99.90
12827;DHT22;66927;48.812;9.118;2024-03-02T11:38:01;15.50;99.90
12827;DHT22;66927;48.812;9.118;2024-03-02T11:40:29;15.70;98.90
12827;DHT22;66927;48.812;9.118;2024-03-02T11:42:55;15.80;98.80
12827;DHT22;66927;48.812;9.118;2024-03-02T11:45:26;16.00;98.40
12827;DHT22;66927;48.812;9.118;2024-03-02T11:47:53;16.10;97.50
12827;DHT22;66927;48.812;9.118;2024-03-02T11:50:35;16.30;97.60
12827;DHT22;66927;48.812;9.118;2024-03-02T11:53:05;16.30;96.80
12827;DHT22;66927;48.812;9.118;2024-03-02T11:55:37;16.30;97.00
12827;DHT22;66927;48.812;9.118;2024-03-02T11:58:08;16.30;96.80
12827;DHT22;66927;48.812;9.118;2024-03-02T12:00:34;16.20;97.20
12827;DHT22;66927;48.812;9.118;2024-03-02T12:03:03;16.20;97.00
12827;DHT22;66927;48.812;9.118;2024-03-02T12:05:30;16.20;96.80
12827;DHT22;66927;48.812;9.118;2024-03-02T12:08:03;16.30;96.70
12827;DHT22;66927;48.812;9.118;2024-03-02T12:10:30;16.30;96.70
12827;DHT22;66927;48.812;9.118;2024-03-02T12:13:00;16.40;96.70
12827;DHT22;66927;48.812;9.118;2024-03-02T12:15:30;16.40;96.70
12827;DHT22;66927;48.812;9.118;2024-03-02T12:17:58;16.60;96.50
12827;DHT22;66927;48.812;9.118;2024-03-02T12:20:25;16.70;95.00
12827;DHT22;66927;48.812;9.118;2024-03-02T12:22:56;16.90;94.30
12827;DHT22;66927;48.812;9.118;2024-03-02T12:25:24;16.90;94.10
12827;DHT22;66927;48.812;9.118;2024-03-02T12:27:51;17.10;94.80
12827;DHT22;66927;48.812;9.118;2024-03-02T12:30:18;17.20;93.60
12827;DHT22;66927;48.812;9.118;2024-03-02T12:32:44;17.30;93.90
12827;DHT22;66927;48.812;9.118;2024-03-02T12:35:11;17.40;93.70
12827;DHT22;66927;48.812;9.118;2024-03-02T12:37:58;17.60;93.90
12827;DHT22;66927;48.812;9.118;2024-03-02T12:40:24;17.70;92.80
12827;DHT22;66927;48.812;9.118;2024-03-02T12:42:50;17.80;92.00
12827;DHT22;66927;48.812;9.118;2024-03-02T12:45:16;17.80;91.80
12827;DHT22;66927;48.812;9.118;2024-03-02T12:47:49;17.80;92.40
12827;DHT22;66927;48.812;9.118;2024-03-02T12:50:16;17.90;93.30
12827;DHT22;66927;48.812;9.118;2024-03-02T12:52:41;18.00;92.90
12827;DHT22;66927;48.812;9.118;2024-03-02T12:55:07;18.10;92.10
12827;DHT22;66927;48.812;9.118;2024-03-02T12:57:33;18.40;92.10
12827;DHT22;66927;48.812;9.118;2024-03-02T13:00:03;18.40;91.40
12827;DHT22;66927;48.812;9.118;2024-03-02T13:02:35;18.50;91.20
12827;DHT22;66927;48.812;9.118;2024-03-02T13:05:01;18.40;91.10
12827;DHT22;66927;48.812;9.118;2024-03-02T13:07:27;18.40;91.90
12827;DHT22;66927;48.812;9.118;2024-03-02T13:09:54;18.50;91.20
12827;DHT22;66927;48.812;9.118;2024-03-02T13:12:24;18.50;91.30
12827;DHT22;66927;48.812;9.118;2024-03-02T13:14:53;18.60;90.90
12827;DHT22;66927;48.812;9.118;2024-03-02T13:17:21;18.60;90.70
12827;DHT22;66927;48.812;9.118;2024-03-02T13:19:53;18.60;90.80
12827;DHT22;66927;48.812;9.118;2024-03-02T13:22:20;18.60;90.80
12827;DHT22;66927;48.812;9.118;2024-03-02T13:24:47;18.70;91.10
12827;DHT22;66927;48.812;9.118;2024-03-02T13:27:13;18.70;90.80
12827;DHT22;66927;48.812;9.118;2024-03-02T13:29:38;18.80;90.50
12827;DHT22;66927;48.812;9.118;2024-03-02T13:32:05;18.70;90.20
12827;DHT22;66927;48.812;9.118;2024-03-02T13:34:30;18.70;90.20
12827;DHT22;66927;48.812;9.118;2024-03-02T13:36:56;18.80;90.80
12827;DHT22;66927;48.812;9.118;2024-03-02T13:39:22;18.90;90.80
12827;DHT22;66927;48.812;9.118;2024-03-02T13:41:48;19.00;90.60
12827;DHT22;66927;48.812;9.118;2024-03-02T13:44:19;19.10;90.70
12827;DHT22;66927;48.812;9.118;2024-03-02T13:46:45;19.20;90.30
12827;DHT22;66927;48.812;9.118;2024-03-02T13:49:11;19.20;89.70
12827;DHT22;66927;48.812;9.118;2024-03-02T13:51:37;19.20;88.50
12827;DHT22;66927;48.812;9.118;2024-03-02T13:54:03;19.30;89.50
12827;DHT22;66927;48.812;9.118;2024-03-02T13:56:29;19.40;89.20
12827;DHT22;66927;48.812;9.118;2024-03-02T13:58:55;19.40;88.80
12827;DHT22;66927;48.812;9.118;2024-03-02T14:01:21;19.50;88.50
12827;DHT22;66927;48.812;9.118;2024-03-02T14:03:47;19.50;87.70
12827;DHT22;66927;48.812;9.118;2024-03-02T14:06:13;19.60;87.20
12827;DHT22;66927;48.812;9.118;2024-03-02T14:08:39;19.60;86.40
12827;DHT22;66927;48.812;9.118;2024-03-02T14:11:04;19.50;87.90
12827;DHT22;66927;48.812;9.118;2024-03-02T14:13:30;19.50;87.00
12827;DHT22;66927;48.812;9.118;2024-03-02T14:15:56;19.50;86.30
12827;DHT22;66927;48.812;9.118;2024-03-02T14:18:21;19.50;87.20
12827;DHT22;66927;48.812;9.118;2024-03-02T14:20:48;19.40;86.30
12827;DHT22;66927;48.812;9.118;2024-03-02T14:23:18;19.40;86.20
12827;DHT22;66927;48.812;9.118;2024-03-02T14:25:45;19.30;85.90
12827;DHT22;66927;48.812;9.118;2024-03-02T14:28:12;19.20;85.20
12827;DHT22;66927;48.812;9.118;2024-03-02T14:30:38;19.20;86.00
12827;DHT22;66927;48.812;9.118;2024-03-02T14:33:03;19.10;85.00
12827;DHT22;66927;48.812;9.118;2024-03-02T14:35:29;19.00;84.90
12827;DHT22;66927;48.812;9.118;2024-03-02T14:37:55;19.00;85.30
12827;DHT22;66927;48.812;9.118;2024-03-02T14:40:23;19.10;85.40
12827;DHT22;66927;48.812;9.118;2024-03-02T14:42:52;19.00;84.00
12827;DHT22;66927;48.812;9.118;2024-03-02T14:45:17;19.10;83.80
12827;DHT22;66927;48.812;9.118;2024-03-02T14:47:43;19.10;83.70
12827;DHT22;66927;48.812;9.118;2024-03-02T14:50:09;19.20;85.50
12827;DHT22;66927;48.812;9.118;2024-03-02T14:52:35;19.30;85.70
12827;DHT22;66927;48.812;9.118;2024-03-02T14:55:01;19.30;85.10
12827;DHT22;66927;48.812;9.118;2024-03-02T14:57:28;19.40;83.50
12827;DHT22;66927;48.812;9.118;2024-03-02T14:59:53;19.40;82.70
12827;DHT22;66927;48.812;9.118;2024-03-02T15:02:20;19.40;83.40
12827;DHT22;66927;48.812;9.118;2024-03-02T15:04:46;19.50;84.50
12827;DHT22;66927;48.812;9.118;2024-03-02T15:07:13;19.60;82.90
12827;DHT22;66927;48.812;9.118;2024-03-02T15:09:39;19.60;83.30
12827;DHT22;66927;48.812;9.118;2024-03-02T15:12:05;19.70;81.50
12827;DHT22;66927;48.812;9.118;2024-03-02T15:14:31;19.70;82.90
12827;DHT22;66927;48.812;9.118;2024-03-02T15:16:57;19.70;81.10
12827;DHT22;66927;48.812;9.118;2024-03-02T15:19:23;19.60;81.80
12827;DHT22;66927;48.812;9.118;2024-03-02T15:21:49;19.50;82.40
12827;DHT22;66927;48.812;9.118;2024-03-02T15:24:14;19.40;82.60
12827;DHT22;66927;48.812;9.118;2024-03-02T15:26:40;19.20;82.50
12827;DHT22;66927;48.812;9.118;2024-03-02T15:29:06;18.90;82.50
12827;DHT22;66927;48.812;9.118;2024-03-02T15:31:31;18.70;82.50
12827;DHT22;66927;48.812;9.118;2024-03-02T15:33:57;18.50;81.90
12827;DHT22;66927;48.812;9.118;2024-03-02T15:36:23;18.30;81.50
12827;DHT22;66927;48.812;9.118;2024-03-02T15:38:49;18.20;82.00
12827;DHT22;66927;48.812;9.118;2024-03-02T15:41:15;18.00;81.80
12827;DHT22;66927;48.812;9.118;2024-03-02T15:43:41;17.90;82.90